Canalejas, Argentina
Current Conditions -  °F | °C
As of 12:00 PM on Monday 24 Nov 2014 (Local Time) from SAOC Reporting Station
Scattered Clouds Scattered Clouds  
Wind Chill: 68°   Ceiling: Unl
Heat Index: 68°   Visibility: 6mi
Dew Point: 55°   Wind: 16mph
Humidity: 64%   Direction: 200°SSW
Pressure: 29.91"   Gusts: NA
Location:  35.23°S, 66.57°W
Report Text: SAOC 241500Z 20014KT 9999 SCT030 SCT05020/13 Q1013
Loading
Personal Weather Stations






























Interactive Weather Map New forecast layout! Learn more

10-Day Weather Forecast

Advertisements
Track Severe Weather on mobile